createdAt,value
2022-08-12T00:04:22.519Z,2.8
2022-08-12T00:10:42.513Z,2.8
2022-08-12T00:17:05.571Z,2.2
2022-08-12T00:23:25.472Z,2.2
2022-08-12T00:29:48.514Z,2.5
2022-08-12T00:36:08.544Z,2.5
2022-08-12T00:42:31.494Z,2.8
2022-08-12T00:48:51.512Z,2.8
2022-08-12T00:55:14.516Z,2.9
2022-08-12T01:02:00.775Z,2.9
2022-08-12T01:07:57.547Z,2.7
2022-08-12T01:14:17.499Z,2.7
2022-08-12T01:20:40.505Z,3
2022-08-12T01:27:00.517Z,3
2022-08-12T01:33:23.481Z,2.8
2022-08-12T01:40:31.245Z,2.8
2022-08-12T01:46:06.505Z,2.7
2022-08-12T01:52:26.535Z,2.7
2022-08-12T01:58:49.527Z,2.4
2022-08-12T02:05:09.483Z,2.4
2022-08-12T02:11:32.534Z,2.5
2022-08-12T02:17:54.898Z,2.5
2022-08-12T02:24:15.524Z,1.6
2022-08-12T02:30:41.740Z,1.6
2022-08-12T02:37:02.443Z,3.4
2022-08-12T02:43:18.553Z,3.4
2022-08-12T02:49:41.496Z,2.6
2022-08-12T02:56:01.502Z,2.6
2022-08-12T03:02:24.533Z,3.1
2022-08-12T03:08:44.862Z,3.1
2022-08-12T03:15:07.592Z,3.3
2022-08-12T03:21:52.352Z,3.3
2022-08-12T03:27:50.535Z,2.7
2022-08-12T03:50:38.421Z,3.7
2022-08-12T03:56:58.522Z,3.7
2022-08-12T04:03:21.546Z,4.2
2022-08-12T04:09:41.516Z,4.2
2022-08-12T04:16:04.510Z,3.7
2022-08-12T04:22:24.521Z,3.7
2022-08-12T04:28:47.508Z,2
2022-08-12T04:35:07.604Z,2
2022-08-12T04:41:30.610Z,2.1
2022-08-12T04:47:50.507Z,2.1
2022-08-12T04:54:13.695Z,5.2
2022-08-12T05:00:33.557Z,5.2
2022-08-12T05:06:56.605Z,2.6
2022-08-12T05:13:16.601Z,2.6
2022-08-12T05:19:39.550Z,2.9
2022-08-12T05:25:59.600Z,2.9
2022-08-12T05:32:22.647Z,3.5
2022-08-12T05:38:42.608Z,3.5
2022-08-12T05:45:05.490Z,3.6
2022-08-12T05:51:28.829Z,3.6
2022-08-12T05:57:48.487Z,2.4
2022-08-12T06:04:08.508Z,2.4
2022-08-12T06:10:32.977Z,2.8
2022-08-12T06:16:51.530Z,2.8
2022-08-12T06:23:14.536Z,2.9
2022-08-12T06:30:07.689Z,2.9
2022-08-12T06:35:58.772Z,2.6
2022-08-12T06:42:31.476Z,2.6
2022-08-12T06:48:40.486Z,4.1
2022-08-12T06:55:00.523Z,4.1
2022-08-12T07:01:23.525Z,2.4
2022-08-12T07:07:43.473Z,2.4
2022-08-12T07:14:12.096Z,1.7
2022-08-12T07:20:50.992Z,1.7
2022-08-12T07:26:49.505Z,1.7
2022-08-12T07:33:09.486Z,1.7
2022-08-12T07:39:32.508Z,1.5
2022-08-12T07:45:52.520Z,1.5
2022-08-12T07:52:15.500Z,2.1
2022-08-12T07:58:35.525Z,2.1
2022-08-12T08:04:58.490Z,1.9
2022-08-12T08:11:18.484Z,1.9
2022-08-12T08:17:41.538Z,1.4
2022-08-12T08:24:04.769Z,1.4
2022-08-12T08:30:24.502Z,2
2022-08-12T08:36:44.692Z,2
2022-08-12T08:43:07.492Z,2.1
2022-08-12T08:49:27.558Z,2.1
2022-08-12T08:56:04.407Z,1.6
2022-08-12T09:02:10.580Z,1.6
2022-08-12T09:18:26.592Z,2.2
2022-08-12T09:24:41.491Z,2.2
2022-08-12T09:31:04.504Z,2.1
2022-08-12T09:37:25.044Z,2.1
2022-08-12T09:43:53.662Z,0.8
2022-08-12T09:50:07.532Z,0.8
2022-08-12T09:56:57.596Z,0.4
2022-08-12T10:02:50.530Z,0.4
2022-08-12T10:09:13.549Z,1.3
2022-08-12T10:16:01.041Z,1.3
2022-08-12T10:21:57.053Z,0.6
2022-08-12T10:28:24.808Z,0.6
2022-08-12T10:34:39.531Z,1.4
2022-08-12T10:40:59.566Z,1.4
2022-08-12T10:47:25.782Z,1.1
2022-08-12T10:53:43.758Z,1.1
2022-08-12T11:00:29.826Z,1
2022-08-12T11:07:04.328Z,1
2022-08-12T11:12:56.911Z,0.8
2022-08-12T11:19:08.482Z,0.8
2022-08-12T11:25:36.068Z,0.3
2022-08-12T11:31:56.481Z,0.3
2022-08-12T11:38:20.295Z,0.6
2022-08-12T11:44:42.767Z,0.6
2022-08-12T11:51:00.491Z,0.6
2022-08-12T11:58:09.405Z,0.6
2022-08-12T12:03:45.746Z,0.7
2022-08-12T12:10:03.811Z,0.7
2022-08-12T12:16:26.473Z,2.1
2022-08-12T12:22:46.523Z,2.1
2022-08-12T12:30:02.956Z,0.4
2022-08-12T12:36:06.902Z,0.4
2022-08-12T12:42:42.265Z,0.7
2022-08-12T12:48:12.479Z,0.7
2022-08-12T12:54:35.509Z,1.2
2022-08-12T13:00:55.526Z,1.2
2022-08-12T13:07:18.504Z,0.5
2022-08-12T13:14:08.495Z,0.5
2022-08-12T13:20:01.487Z,0.7
2022-08-12T13:26:21.524Z,0.7
2022-08-12T13:32:56.618Z,0.8
2022-08-12T13:39:04.504Z,0.8
2022-08-12T13:45:29.138Z,1.5
2022-08-12T13:51:47.520Z,1.5
2022-08-12T13:58:11.338Z,1.4
2022-08-12T14:04:30.514Z,1.4
2022-08-12T14:10:53.538Z,0.3
2022-08-12T14:17:13.496Z,0.3
2022-08-12T14:24:01.777Z,0.7
2022-08-12T14:30:05.232Z,0.7
2022-08-12T14:36:19.488Z,1.4
2022-08-12T14:59:24.147Z,2.2
2022-08-12T15:06:05.635Z,2.2
2022-08-12T15:12:06.561Z,2.2
2022-08-12T15:18:26.490Z,2.2
2022-08-12T15:24:49.527Z,0.3
2022-08-12T15:31:21.482Z,0.3
2022-08-12T15:37:59.108Z,3.5
2022-08-12T15:44:16.737Z,3.5
2022-08-12T15:50:18.130Z,0.6
2022-08-12T15:56:35.497Z,0.6
2022-08-12T16:02:58.597Z,2.9
2022-08-12T16:09:21.458Z,2.9
2022-08-12T16:15:42.187Z,1.2
2022-08-12T16:22:01.482Z,1.2
2022-08-12T16:28:28.160Z,1.2
2022-08-12T16:34:54.603Z,1.2
2022-08-12T16:41:07.486Z,0.4
2022-08-12T16:47:27.516Z,0.4
2022-08-12T16:53:50.482Z,0.6
2022-08-12T17:00:10.514Z,0.6
2022-08-12T17:06:33.510Z,1.2
2022-08-12T17:12:53.500Z,1.2
2022-08-12T17:19:16.498Z,0.9
2022-08-12T17:25:36.518Z,0.9
2022-08-12T17:32:01.815Z,0.2
2022-08-12T17:38:19.474Z,0.2
2022-08-12T17:44:42.510Z,1.1
2022-08-12T17:51:02.497Z,1.1
2022-08-12T17:57:25.478Z,1.7
2022-08-12T18:03:57.227Z,1.7
2022-08-12T18:10:08.667Z,4.7
2022-08-12T18:16:28.519Z,4.7
2022-08-12T18:22:51.646Z,8.2
2022-08-12T18:29:11.527Z,8.2
2022-08-12T18:35:46.765Z,7.5
2022-08-12T18:41:54.464Z,7.5
2022-08-12T18:48:17.516Z,8.2
2022-08-12T18:54:37.558Z,8.2
2022-08-12T19:01:00.524Z,11.2
2022-08-12T19:07:20.533Z,11.2
2022-08-12T19:13:43.719Z,10.1
2022-08-12T19:20:03.672Z,10.1
2022-08-12T19:26:27.963Z,10.6
2022-08-12T19:32:46.482Z,10.6
2022-08-12T19:39:15.018Z,10.9
2022-08-12T19:45:35.761Z,10.9
2022-08-12T19:51:52.487Z,10.9
2022-08-12T19:58:17.865Z,10.9
2022-08-12T20:04:35.509Z,10.3
2022-08-12T20:10:56.054Z,10.3
2022-08-12T20:17:21.474Z,9.3
2022-08-12T20:34:03.173Z,10.4
2022-08-12T20:40:26.062Z,15.2
2022-08-12T20:46:45.562Z,15.2
2022-08-12T20:53:13.993Z,15.2
2022-08-12T20:59:31.746Z,15.2
2022-08-12T21:06:10.465Z,9.1
2022-08-12T21:12:24.909Z,9.1
2022-08-12T21:18:34.461Z,7
2022-08-12T21:24:54.550Z,7
2022-08-12T21:32:38.176Z,7.5
2022-08-12T21:37:37.717Z,7.5
2022-08-12T21:44:00.997Z,7.6
2022-08-12T21:50:20.454Z,7.6
2022-08-12T21:56:43.520Z,6.5
2022-08-12T22:22:15.510Z,8.8
2022-08-12T22:28:38.883Z,8.8
2022-08-12T22:34:58.525Z,8.8
2022-08-12T22:41:18.470Z,8.8
2022-08-12T22:47:45.900Z,4
2022-08-12T22:54:01.519Z,4
2022-08-12T23:00:27.135Z,2
2022-08-12T23:06:44.509Z,2
2022-08-12T23:13:07.460Z,2.5
2022-08-12T23:19:27.489Z,2.5
2022-08-12T23:25:55.084Z,2.4
2022-08-12T23:32:10.463Z,2.4
2022-08-12T23:38:33.510Z,2.7
2022-08-12T23:44:53.492Z,2.7
2022-08-12T23:51:21.927Z,0.9
2022-08-12T23:57:51.303Z,0.9
